sensor_id;sensor_type;location;lat;lon;timestamp;P1;durP1;ratioP1;P2;durP2;ratioP2
33006;SDS011;19361;51.598;7.650;2023-05-31T00:01:14;9.60;;;8.38;;
33006;SDS011;19361;51.598;7.650;2023-05-31T00:06:35;11.00;;;8.85;;
33006;SDS011;19361;51.598;7.650;2023-05-31T00:11:57;11.23;;;9.50;;
33006;SDS011;19361;51.598;7.650;2023-05-31T00:17:18;10.88;;;9.27;;
33006;SDS011;19361;51.598;7.650;2023-05-31T00:22:39;12.98;;;9.35;;
33006;SDS011;19361;51.598;7.650;2023-05-31T00:28:00;11.50;;;9.10;;
33006;SDS011;19361;51.598;7.650;2023-05-31T00:33:22;9.80;;;8.48;;
33006;SDS011;19361;51.598;7.650;2023-05-31T00:38:43;9.90;;;8.80;;
33006;SDS011;19361;51.598;7.650;2023-05-31T00:44:04;11.65;;;8.60;;
33006;SDS011;19361;51.598;7.650;2023-05-31T00:49:25;13.63;;;8.82;;
33006;SDS011;19361;51.598;7.650;2023-05-31T00:54:47;11.75;;;9.20;;
33006;SDS011;19361;51.598;7.650;2023-05-31T01:00:09;11.50;;;8.18;;
33006;SDS011;19361;51.598;7.650;2023-05-31T01:05:30;9.10;;;8.20;;
33006;SDS011;19361;51.598;7.650;2023-05-31T01:10:51;10.10;;;7.70;;
33006;SDS011;19361;51.598;7.650;2023-05-31T01:16:37;7.85;;;6.60;;
33006;SDS011;19361;51.598;7.650;2023-05-31T01:22:13;9.07;;;7.10;;
33006;SDS011;19361;51.598;7.650;2023-05-31T01:28:15;9.98;;;8.05;;
33006;SDS011;19361;51.598;7.650;2023-05-31T01:33:37;8.93;;;7.47;;
33006;SDS011;19361;51.598;7.650;2023-05-31T01:39:00;11.57;;;7.93;;
33006;SDS011;19361;51.598;7.650;2023-05-31T01:44:23;8.93;;;7.75;;
33006;SDS011;19361;51.598;7.650;2023-05-31T01:49:45;9.48;;;8.23;;
33006;SDS011;19361;51.598;7.650;2023-05-31T01:55:07;9.00;;;8.10;;
33006;SDS011;19361;51.598;7.650;2023-05-31T02:00:29;10.55;;;8.73;;
33006;SDS011;19361;51.598;7.650;2023-05-31T02:05:54;10.93;;;8.30;;
33006;SDS011;19361;51.598;7.650;2023-05-31T02:11:16;9.05;;;8.15;;
33006;SDS011;19361;51.598;7.650;2023-05-31T02:16:37;10.38;;;8.43;;
33006;SDS011;19361;51.598;7.650;2023-05-31T02:21:58;8.95;;;7.32;;
33006;SDS011;19361;51.598;7.650;2023-05-31T02:27:20;9.13;;;8.18;;
33006;SDS011;19361;51.598;7.650;2023-05-31T02:32:41;9.80;;;8.55;;
33006;SDS011;19361;51.598;7.650;2023-05-31T02:38:03;10.73;;;8.55;;
33006;SDS011;19361;51.598;7.650;2023-05-31T02:43:24;9.90;;;8.13;;
33006;SDS011;19361;51.598;7.650;2023-05-31T02:48:45;8.35;;;7.55;;
33006;SDS011;19361;51.598;7.650;2023-05-31T02:54:06;7.95;;;7.18;;
33006;SDS011;19361;51.598;7.650;2023-05-31T02:59:27;8.75;;;7.85;;
33006;SDS011;19361;51.598;7.650;2023-05-31T03:04:49;10.52;;;7.93;;
33006;SDS011;19361;51.598;7.650;2023-05-31T03:10:10;7.85;;;7.05;;
33006;SDS011;19361;51.598;7.650;2023-05-31T03:15:32;8.07;;;7.28;;
33006;SDS011;19361;51.598;7.650;2023-05-31T03:20:53;8.77;;;7.00;;
33006;SDS011;19361;51.598;7.650;2023-05-31T03:26:14;9.60;;;7.35;;
33006;SDS011;19361;51.598;7.650;2023-05-31T03:31:35;11.00;;;7.60;;
33006;SDS011;19361;51.598;7.650;2023-05-31T03:36:56;10.82;;;9.23;;
33006;SDS011;19361;51.598;7.650;2023-05-31T03:42:17;8.77;;;7.75;;
33006;SDS011;19361;51.598;7.650;2023-05-31T03:47:38;10.35;;;8.55;;
33006;SDS011;19361;51.598;7.650;2023-05-31T03:53:00;9.68;;;8.65;;
33006;SDS011;19361;51.598;7.650;2023-05-31T03:58:22;10.18;;;8.65;;
33006;SDS011;19361;51.598;7.650;2023-05-31T04:03:43;10.38;;;8.68;;
33006;SDS011;19361;51.598;7.650;2023-05-31T04:09:04;14.73;;;8.77;;
33006;SDS011;19361;51.598;7.650;2023-05-31T04:14:25;10.25;;;8.90;;
33006;SDS011;19361;51.598;7.650;2023-05-31T04:19:46;12.27;;;9.35;;
33006;SDS011;19361;51.598;7.650;2023-05-31T04:25:07;13.10;;;9.20;;
33006;SDS011;19361;51.598;7.650;2023-05-31T04:30:33;11.95;;;9.50;;
33006;SDS011;19361;51.598;7.650;2023-05-31T04:35:55;10.70;;;8.95;;
33006;SDS011;19361;51.598;7.650;2023-05-31T04:41:18;12.95;;;9.23;;
33006;SDS011;19361;51.598;7.650;2023-05-31T04:46:39;10.32;;;8.18;;
33006;SDS011;19361;51.598;7.650;2023-05-31T04:52:02;12.15;;;8.52;;
33006;SDS011;19361;51.598;7.650;2023-05-31T04:57:24;9.15;;;8.25;;
33006;SDS011;19361;51.598;7.650;2023-05-31T05:02:49;15.98;;;8.77;;
33006;SDS011;19361;51.598;7.650;2023-05-31T05:08:10;9.10;;;7.80;;
33006;SDS011;19361;51.598;7.650;2023-05-31T05:13:31;13.38;;;8.40;;
33006;SDS011;19361;51.598;7.650;2023-05-31T05:18:52;10.07;;;8.88;;
33006;SDS011;19361;51.598;7.650;2023-05-31T05:24:14;11.30;;;8.27;;
33006;SDS011;19361;51.598;7.650;2023-05-31T05:29:36;9.13;;;8.13;;
33006;SDS011;19361;51.598;7.650;2023-05-31T05:34:57;13.43;;;8.57;;
33006;SDS011;19361;51.598;7.650;2023-05-31T05:40:18;11.85;;;7.90;;
33006;SDS011;19361;51.598;7.650;2023-05-31T05:45:39;13.32;;;8.50;;
33006;SDS011;19361;51.598;7.650;2023-05-31T05:51:01;14.13;;;8.57;;
33006;SDS011;19361;51.598;7.650;2023-05-31T05:56:23;12.10;;;8.10;;
33006;SDS011;19361;51.598;7.650;2023-05-31T06:01:44;11.35;;;8.38;;
33006;SDS011;19361;51.598;7.650;2023-05-31T06:07:06;13.02;;;9.73;;
33006;SDS011;19361;51.598;7.650;2023-05-31T06:12:27;12.00;;;8.57;;
33006;SDS011;19361;51.598;7.650;2023-05-31T06:17:48;15.18;;;9.15;;
33006;SDS011;19361;51.598;7.650;2023-05-31T06:23:10;17.10;;;9.25;;
33006;SDS011;19361;51.598;7.650;2023-05-31T06:28:31;13.70;;;9.93;;
33006;SDS011;19361;51.598;7.650;2023-05-31T06:33:52;14.48;;;10.43;;
33006;SDS011;19361;51.598;7.650;2023-05-31T06:39:14;14.13;;;10.57;;
33006;SDS011;19361;51.598;7.650;2023-05-31T06:44:35;17.65;;;9.50;;
33006;SDS011;19361;51.598;7.650;2023-05-31T06:49:56;16.15;;;9.95;;
33006;SDS011;19361;51.598;7.650;2023-05-31T06:55:17;11.23;;;8.07;;
33006;SDS011;19361;51.598;7.650;2023-05-31T07:00:38;11.93;;;9.10;;
33006;SDS011;19361;51.598;7.650;2023-05-31T07:05:59;13.10;;;7.28;;
33006;SDS011;19361;51.598;7.650;2023-05-31T07:11:20;10.02;;;6.35;;
33006;SDS011;19361;51.598;7.650;2023-05-31T07:16:41;12.20;;;6.88;;
33006;SDS011;19361;51.598;7.650;2023-05-31T07:22:03;12.75;;;6.70;;
33006;SDS011;19361;51.598;7.650;2023-05-31T07:27:24;11.35;;;6.40;;
33006;SDS011;19361;51.598;7.650;2023-05-31T07:32:45;11.45;;;7.30;;
33006;SDS011;19361;51.598;7.650;2023-05-31T07:38:06;12.70;;;7.20;;
33006;SDS011;19361;51.598;7.650;2023-05-31T07:43:27;9.43;;;6.43;;
33006;SDS011;19361;51.598;7.650;2023-05-31T07:48:49;11.95;;;6.10;;
33006;SDS011;19361;51.598;7.650;2023-05-31T07:54:10;10.57;;;6.57;;
33006;SDS011;19361;51.598;7.650;2023-05-31T07:59:32;12.65;;;5.80;;
33006;SDS011;19361;51.598;7.650;2023-05-31T08:04:53;7.43;;;4.90;;
33006;SDS011;19361;51.598;7.650;2023-05-31T08:10:15;11.90;;;5.20;;
33006;SDS011;19361;51.598;7.650;2023-05-31T08:15:36;9.48;;;5.13;;
33006;SDS011;19361;51.598;7.650;2023-05-31T08:20:57;6.35;;;4.82;;
33006;SDS011;19361;51.598;7.650;2023-05-31T08:26:19;5.88;;;4.00;;
33006;SDS011;19361;51.598;7.650;2023-05-31T08:31:40;12.82;;;4.80;;
33006;SDS011;19361;51.598;7.650;2023-05-31T08:37:01;7.63;;;4.15;;
33006;SDS011;19361;51.598;7.650;2023-05-31T08:42:28;16.10;;;5.22;;
33006;SDS011;19361;51.598;7.650;2023-05-31T08:53:43;9.60;;;4.75;;
33006;SDS011;19361;51.598;7.650;2023-05-31T08:59:08;12.50;;;4.10;;
33006;SDS011;19361;51.598;7.650;2023-05-31T09:04:32;7.43;;;3.58;;
33006;SDS011;19361;51.598;7.650;2023-05-31T09:09:53;7.32;;;3.80;;
33006;SDS011;19361;51.598;7.650;2023-05-31T09:15:14;4.80;;;3.20;;
33006;SDS011;19361;51.598;7.650;2023-05-31T09:20:36;8.43;;;3.75;;
33006;SDS011;19361;51.598;7.650;2023-05-31T09:25:57;6.50;;;3.30;;
33006;SDS011;19361;51.598;7.650;2023-05-31T09:31:19;9.52;;;2.92;;
33006;SDS011;19361;51.598;7.650;2023-05-31T09:36:42;5.85;;;2.83;;
33006;SDS011;19361;51.598;7.650;2023-05-31T09:42:08;5.93;;;2.95;;
33006;SDS011;19361;51.598;7.650;2023-05-31T09:47:35;5.55;;;2.60;;
33006;SDS011;19361;51.598;7.650;2023-05-31T09:52:58;7.40;;;2.63;;
33006;SDS011;19361;51.598;7.650;2023-05-31T09:58:28;6.90;;;3.15;;
33006;SDS011;19361;51.598;7.650;2023-05-31T10:03:52;4.15;;;2.28;;
33006;SDS011;19361;51.598;7.650;2023-05-31T10:09:14;6.35;;;3.13;;
33006;SDS011;19361;51.598;7.650;2023-05-31T10:14:36;8.50;;;2.83;;
33006;SDS011;19361;51.598;7.650;2023-05-31T10:20:02;6.00;;;2.53;;
33006;SDS011;19361;51.598;7.650;2023-05-31T10:25:30;4.20;;;2.47;;
33006;SDS011;19361;51.598;7.650;2023-05-31T10:30:58;5.20;;;2.90;;
33006;SDS011;19361;51.598;7.650;2023-05-31T10:36:20;10.05;;;2.25;;
33006;SDS011;19361;51.598;7.650;2023-05-31T10:41:44;5.00;;;2.58;;
33006;SDS011;19361;51.598;7.650;2023-05-31T10:47:09;3.45;;;2.28;;
33006;SDS011;19361;51.598;7.650;2023-05-31T10:52:33;6.80;;;2.42;;
33006;SDS011;19361;51.598;7.650;2023-05-31T10:57:54;6.45;;;3.05;;
33006;SDS011;19361;51.598;7.650;2023-05-31T11:03:16;6.43;;;2.75;;
33006;SDS011;19361;51.598;7.650;2023-05-31T11:08:55;3.42;;;2.30;;
33006;SDS011;19361;51.598;7.650;2023-05-31T11:14:30;6.72;;;3.00;;
33006;SDS011;19361;51.598;7.650;2023-05-31T11:19:52;6.05;;;2.70;;
33006;SDS011;19361;51.598;7.650;2023-05-31T11:25:17;7.00;;;2.63;;
33006;SDS011;19361;51.598;7.650;2023-05-31T11:30:42;6.43;;;2.28;;
33006;SDS011;19361;51.598;7.650;2023-05-31T11:36:07;5.43;;;2.50;;
33006;SDS011;19361;51.598;7.650;2023-05-31T11:41:29;6.03;;;2.78;;
33006;SDS011;19361;51.598;7.650;2023-05-31T11:46:52;4.18;;;2.10;;
33006;SDS011;19361;51.598;7.650;2023-05-31T11:52:21;8.18;;;2.40;;
33006;SDS011;19361;51.598;7.650;2023-05-31T11:57:44;4.43;;;2.38;;
33006;SDS011;19361;51.598;7.650;2023-05-31T12:03:13;5.65;;;2.13;;
33006;SDS011;19361;51.598;7.650;2023-05-31T12:08:37;8.65;;;3.10;;
33006;SDS011;19361;51.598;7.650;2023-05-31T12:13:58;6.38;;;3.35;;
33006;SDS011;19361;51.598;7.650;2023-05-31T12:19:19;6.53;;;2.78;;
33006;SDS011;19361;51.598;7.650;2023-05-31T12:24:47;7.18;;;3.17;;
33006;SDS011;19361;51.598;7.650;2023-05-31T12:30:15;5.32;;;2.58;;
33006;SDS011;19361;51.598;7.650;2023-05-31T12:35:40;5.45;;;2.67;;
33006;SDS011;19361;51.598;7.650;2023-05-31T12:41:03;8.23;;;2.67;;
33006;SDS011;19361;51.598;7.650;2023-05-31T12:46:24;5.90;;;2.75;;
33006;SDS011;19361;51.598;7.650;2023-05-31T12:51:46;3.38;;;2.10;;
33006;SDS011;19361;51.598;7.650;2023-05-31T12:57:08;6.55;;;2.50;;
33006;SDS011;19361;51.598;7.650;2023-05-31T13:02:31;7.10;;;2.80;;
33006;SDS011;19361;51.598;7.650;2023-05-31T13:07:52;5.85;;;2.42;;
33006;SDS011;19361;51.598;7.650;2023-05-31T13:13:14;4.40;;;2.20;;
33006;SDS011;19361;51.598;7.650;2023-05-31T13:18:35;7.50;;;2.60;;
33006;SDS011;19361;51.598;7.650;2023-05-31T13:23:57;10.45;;;2.88;;
33006;SDS011;19361;51.598;7.650;2023-05-31T13:29:19;4.47;;;2.80;;
33006;SDS011;19361;51.598;7.650;2023-05-31T13:34:42;7.35;;;2.20;;
33006;SDS011;19361;51.598;7.650;2023-05-31T13:40:03;3.50;;;2.30;;
33006;SDS011;19361;51.598;7.650;2023-05-31T13:45:25;7.25;;;2.40;;
33006;SDS011;19361;51.598;7.650;2023-05-31T13:50:46;5.25;;;2.50;;
33006;SDS011;19361;51.598;7.650;2023-05-31T13:56:07;7.95;;;3.10;;
33006;SDS011;19361;51.598;7.650;2023-05-31T14:01:29;7.50;;;2.70;;
33006;SDS011;19361;51.598;7.650;2023-05-31T14:06:50;7.90;;;2.67;;
33006;SDS011;19361;51.598;7.650;2023-05-31T14:12:11;7.63;;;2.75;;
33006;SDS011;19361;51.598;7.650;2023-05-31T14:17:32;3.55;;;2.45;;
33006;SDS011;19361;51.598;7.650;2023-05-31T14:22:53;7.47;;;2.63;;
33006;SDS011;19361;51.598;7.650;2023-05-31T14:28:14;3.88;;;2.50;;
33006;SDS011;19361;51.598;7.650;2023-05-31T14:33:38;5.15;;;2.42;;
33006;SDS011;19361;51.598;7.650;2023-05-31T14:38:59;4.05;;;2.63;;
33006;SDS011;19361;51.598;7.650;2023-05-31T14:44:21;4.00;;;2.55;;
33006;SDS011;19361;51.598;7.650;2023-05-31T14:49:42;6.03;;;2.45;;
33006;SDS011;19361;51.598;7.650;2023-05-31T14:55:03;6.22;;;3.17;;
33006;SDS011;19361;51.598;7.650;2023-05-31T15:00:24;9.70;;;3.03;;
33006;SDS011;19361;51.598;7.650;2023-05-31T15:05:46;8.07;;;2.95;;
33006;SDS011;19361;51.598;7.650;2023-05-31T15:11:07;5.90;;;2.90;;
33006;SDS011;19361;51.598;7.650;2023-05-31T15:16:28;4.85;;;2.58;;
33006;SDS011;19361;51.598;7.650;2023-05-31T15:21:50;4.00;;;2.42;;
33006;SDS011;19361;51.598;7.650;2023-05-31T15:27:11;4.38;;;2.40;;
33006;SDS011;19361;51.598;7.650;2023-05-31T15:32:34;4.53;;;2.70;;
33006;SDS011;19361;51.598;7.650;2023-05-31T15:37:55;5.88;;;2.35;;
33006;SDS011;19361;51.598;7.650;2023-05-31T15:43:16;4.47;;;2.78;;
33006;SDS011;19361;51.598;7.650;2023-05-31T15:48:38;4.20;;;2.50;;
33006;SDS011;19361;51.598;7.650;2023-05-31T15:53:59;3.55;;;2.30;;
33006;SDS011;19361;51.598;7.650;2023-05-31T15:59:20;8.50;;;2.50;;
33006;SDS011;19361;51.598;7.650;2023-05-31T16:04:41;6.30;;;2.58;;
33006;SDS011;19361;51.598;7.650;2023-05-31T16:10:02;6.97;;;2.60;;
33006;SDS011;19361;51.598;7.650;2023-05-31T16:15:24;4.90;;;2.28;;
33006;SDS011;19361;51.598;7.650;2023-05-31T16:20:45;5.05;;;2.45;;
33006;SDS011;19361;51.598;7.650;2023-05-31T16:26:06;5.07;;;2.30;;
33006;SDS011;19361;51.598;7.650;2023-05-31T16:31:28;4.93;;;2.20;;
33006;SDS011;19361;51.598;7.650;2023-05-31T16:36:49;5.10;;;2.58;;
33006;SDS011;19361;51.598;7.650;2023-05-31T16:42:11;6.78;;;3.58;;
33006;SDS011;19361;51.598;7.650;2023-05-31T16:47:32;6.93;;;3.80;;
33006;SDS011;19361;51.598;7.650;2023-05-31T16:52:53;4.38;;;2.28;;
33006;SDS011;19361;51.598;7.650;2023-05-31T16:58:15;5.78;;;2.55;;
33006;SDS011;19361;51.598;7.650;2023-05-31T17:03:36;9.20;;;2.40;;
33006;SDS011;19361;51.598;7.650;2023-05-31T17:08:57;6.03;;;2.10;;
33006;SDS011;19361;51.598;7.650;2023-05-31T17:14:18;5.25;;;2.03;;
33006;SDS011;19361;51.598;7.650;2023-05-31T17:19:39;6.15;;;2.08;;
33006;SDS011;19361;51.598;7.650;2023-05-31T17:25:00;2.35;;;1.75;;
33006;SDS011;19361;51.598;7.650;2023-05-31T17:30:22;6.40;;;1.90;;
33006;SDS011;19361;51.598;7.650;2023-05-31T17:35:46;3.17;;;1.92;;
33006;SDS011;19361;51.598;7.650;2023-05-31T17:41:07;3.22;;;1.83;;
33006;SDS011;19361;51.598;7.650;2023-05-31T17:46:28;3.38;;;2.35;;
33006;SDS011;19361;51.598;7.650;2023-05-31T17:51:49;3.15;;;1.92;;
33006;SDS011;19361;51.598;7.650;2023-05-31T17:57:10;5.65;;;1.80;;
33006;SDS011;19361;51.598;7.650;2023-05-31T18:02:32;4.65;;;2.30;;
33006;SDS011;19361;51.598;7.650;2023-05-31T18:07:53;5.38;;;2.33;;
33006;SDS011;19361;51.598;7.650;2023-05-31T18:13:15;3.60;;;2.03;;
33006;SDS011;19361;51.598;7.650;2023-05-31T18:18:36;5.20;;;2.20;;
33006;SDS011;19361;51.598;7.650;2023-05-31T18:23:57;3.83;;;2.20;;
33006;SDS011;19361;51.598;7.650;2023-05-31T18:29:18;3.03;;;1.90;;
33006;SDS011;19361;51.598;7.650;2023-05-31T18:34:42;3.88;;;1.70;;
33006;SDS011;19361;51.598;7.650;2023-05-31T18:40:05;2.95;;;2.00;;
33006;SDS011;19361;51.598;7.650;2023-05-31T18:45:27;3.15;;;2.00;;
33006;SDS011;19361;51.598;7.650;2023-05-31T18:50:49;4.85;;;1.75;;
33006;SDS011;19361;51.598;7.650;2023-05-31T18:56:10;2.22;;;2.00;;
33006;SDS011;19361;51.598;7.650;2023-05-31T19:01:31;4.10;;;1.95;;
33006;SDS011;19361;51.598;7.650;2023-05-31T19:06:52;3.72;;;1.90;;
33006;SDS011;19361;51.598;7.650;2023-05-31T19:12:14;3.00;;;1.92;;
33006;SDS011;19361;51.598;7.650;2023-05-31T19:17:35;7.10;;;2.08;;
33006;SDS011;19361;51.598;7.650;2023-05-31T19:22:56;2.83;;;1.90;;
33006;SDS011;19361;51.598;7.650;2023-05-31T19:28:18;3.45;;;2.10;;
33006;SDS011;19361;51.598;7.650;2023-05-31T19:33:39;2.88;;;2.13;;
33006;SDS011;19361;51.598;7.650;2023-05-31T19:39:01;3.38;;;2.20;;
33006;SDS011;19361;51.598;7.650;2023-05-31T19:44:23;4.60;;;2.20;;
33006;SDS011;19361;51.598;7.650;2023-05-31T19:49:44;2.33;;;2.05;;
33006;SDS011;19361;51.598;7.650;2023-05-31T19:55:05;4.10;;;2.22;;
33006;SDS011;19361;51.598;7.650;2023-05-31T20:00:27;4.13;;;2.50;;
33006;SDS011;19361;51.598;7.650;2023-05-31T20:05:49;5.10;;;2.10;;
33006;SDS011;19361;51.598;7.650;2023-05-31T20:11:10;4.50;;;2.30;;
33006;SDS011;19361;51.598;7.650;2023-05-31T20:16:32;3.65;;;2.30;;
33006;SDS011;19361;51.598;7.650;2023-05-31T20:21:53;4.15;;;2.80;;
33006;SDS011;19361;51.598;7.650;2023-05-31T20:27:14;3.70;;;2.28;;
33006;SDS011;19361;51.598;7.650;2023-05-31T20:32:35;6.95;;;2.22;;
33006;SDS011;19361;51.598;7.650;2023-05-31T20:37:56;4.45;;;2.35;;
33006;SDS011;19361;51.598;7.650;2023-05-31T20:43:18;5.15;;;2.17;;
33006;SDS011;19361;51.598;7.650;2023-05-31T20:48:39;4.93;;;2.05;;
33006;SDS011;19361;51.598;7.650;2023-05-31T20:54:00;4.53;;;2.85;;
33006;SDS011;19361;51.598;7.650;2023-05-31T20:59:22;4.53;;;2.10;;
33006;SDS011;19361;51.598;7.650;2023-05-31T21:04:43;4.13;;;2.33;;
33006;SDS011;19361;51.598;7.650;2023-05-31T21:10:04;3.22;;;2.10;;
33006;SDS011;19361;51.598;7.650;2023-05-31T21:15:26;4.50;;;2.40;;
33006;SDS011;19361;51.598;7.650;2023-05-31T21:20:47;6.13;;;2.40;;
33006;SDS011;19361;51.598;7.650;2023-05-31T21:26:08;3.58;;;1.88;;
33006;SDS011;19361;51.598;7.650;2023-05-31T21:31:29;4.30;;;2.03;;
33006;SDS011;19361;51.598;7.650;2023-05-31T21:36:52;4.80;;;2.05;;
33006;SDS011;19361;51.598;7.650;2023-05-31T21:42:13;4.10;;;2.28;;
33006;SDS011;19361;51.598;7.650;2023-05-31T21:47:35;4.22;;;1.73;;
33006;SDS011;19361;51.598;7.650;2023-05-31T21:52:56;5.47;;;2.05;;
33006;SDS011;19361;51.598;7.650;2023-05-31T21:58:17;3.55;;;1.92;;
33006;SDS011;19361;51.598;7.650;2023-05-31T22:03:38;3.45;;;2.05;;
33006;SDS011;19361;51.598;7.650;2023-05-31T22:08:59;5.43;;;2.30;;
33006;SDS011;19361;51.598;7.650;2023-05-31T22:14:20;3.38;;;1.85;;
33006;SDS011;19361;51.598;7.650;2023-05-31T22:19:41;2.65;;;1.70;;
33006;SDS011;19361;51.598;7.650;2023-05-31T22:25:02;7.82;;;2.08;;
33006;SDS011;19361;51.598;7.650;2023-05-31T22:30:24;6.97;;;1.95;;
33006;SDS011;19361;51.598;7.650;2023-05-31T22:35:45;4.65;;;2.22;;
33006;SDS011;19361;51.598;7.650;2023-05-31T22:41:06;4.82;;;1.92;;
33006;SDS011;19361;51.598;7.650;2023-05-31T22:46:27;2.90;;;1.67;;
33006;SDS011;19361;51.598;7.650;2023-05-31T22:51:48;6.10;;;3.17;;
33006;SDS011;19361;51.598;7.650;2023-05-31T22:57:09;3.92;;;1.70;;
33006;SDS011;19361;51.598;7.650;2023-05-31T23:02:30;5.22;;;2.30;;
33006;SDS011;19361;51.598;7.650;2023-05-31T23:07:51;2.30;;;1.98;;
33006;SDS011;19361;51.598;7.650;2023-05-31T23:13:14;4.00;;;2.30;;
33006;SDS011;19361;51.598;7.650;2023-05-31T23:18:35;6.45;;;2.80;;
33006;SDS011;19361;51.598;7.650;2023-05-31T23:23:56;3.17;;;2.15;;
33006;SDS011;19361;51.598;7.650;2023-05-31T23:29:17;5.80;;;2.17;;
33006;SDS011;19361;51.598;7.650;2023-05-31T23:34:38;5.10;;;2.42;;
33006;SDS011;19361;51.598;7.650;2023-05-31T23:40:02;7.35;;;2.17;;
33006;SDS011;19361;51.598;7.650;2023-05-31T23:45:25;6.53;;;2.45;;
33006;SDS011;19361;51.598;7.650;2023-05-31T23:50:46;4.45;;;2.25;;
33006;SDS011;19361;51.598;7.650;2023-05-31T23:56:07;4.35;;;3.15;;
